Time,TemperatureF,DewpointF,PressureIn,WindDirection,WindDirectionDegrees,WindSpeedMPH,WindSpeedGustMPH,Humidity,HourlyPrecipIn,Conditions,Clouds,dailyrainin,SoftwareType,DateUTC
2015-07-29 00:02:00,71.4,69.0,29.94,SSE,150,1.0,3.0,93,0.00,,,0.00,weatherlink.com 1.10,2015-07-29 04:02:00,
2015-07-29 00:17:00,71.3,70.0,29.95,SSE,150,0.0,1.0,94,0.00,,,0.00,weatherlink.com 1.10,2015-07-29 04:17:00,
2015-07-29 00:32:00,71.0,69.0,29.95,SSE,150,1.0,2.0,94,0.00,,,0.00,weatherlink.com 1.10,2015-07-29 04:32:00,
2015-07-29 00:47:00,70.6,69.0,29.95,ENE,63,3.0,5.0,94,0.00,,,0.00,weatherlink.com 1.10,2015-07-29 04:47:00,
2015-07-29 01:02:00,70.4,68.0,29.95,ENE,62,0.0,3.0,93,0.00,,,0.00,weatherlink.com 1.10,2015-07-29 05:02:00,
2015-07-29 01:17:00,70.0,68.0,29.95,ENE,59,0.0,2.0,94,0.00,,,0.00,weatherlink.com 1.10,2015-07-29 05:17:00,
2015-07-29 01:32:00,70.0,69.0,29.94,ENE,74,2.0,4.0,95,0.00,,,0.00,weatherlink.com 1.10,2015-07-29 05:32:00,
2015-07-29 01:47:00,70.1,68.0,29.94,East,99,1.0,4.0,94,0.00,,,0.00,weatherlink.com 1.10,2015-07-29 05:47:00,
2015-07-29 02:02:00,69.6,68.0,29.94,East,98,2.0,3.0,94,0.00,,,0.00,weatherlink.com 1.10,2015-07-29 06:02:00,
2015-07-29 02:17:00,69.4,68.0,29.94,ENE,61,3.0,3.0,94,0.00,,,0.00,weatherlink.com 1.10,2015-07-29 06:17:00,
2015-07-29 02:32:00,69.3,68.0,29.93,NE,55,0.0,4.0,94,0.00,,,0.00,weatherlink.com 1.10,2015-07-29 06:32:00,
2015-07-29 02:47:00,68.8,67.0,29.93,SSW,213,1.0,2.0,95,0.00,,,0.00,weatherlink.com 1.10,2015-07-29 06:47:00,
2015-07-29 03:02:00,68.5,67.0,29.93,SSW,213,0.0,0.0,95,0.00,,,0.00,weatherlink.com 1.10,2015-07-29 07:02:00,
2015-07-29 03:17:00,68.2,67.0,29.92,SSW,209,0.0,1.0,95,0.00,,,0.00,weatherlink.com 1.10,2015-07-29 07:17:00,
2015-07-29 03:32:00,67.8,66.0,29.91,SSW,209,1.0,2.0,95,0.00,,,0.00,weatherlink.com 1.10,2015-07-29 07:32:00,
2015-07-29 03:47:00,67.6,67.0,29.91,SSW,209,1.0,2.0,96,0.00,,,0.00,weatherlink.com 1.10,2015-07-29 07:47:00,
2015-07-29 04:02:00,67.4,66.0,29.92,SSW,209,2.0,3.0,96,0.00,,,0.00,weatherlink.com 1.10,2015-07-29 08:02:00,
2015-07-29 04:17:00,67.2,66.0,29.92,North,5,2.0,3.0,96,0.00,,,0.00,weatherlink.com 1.10,2015-07-29 08:17:00,
2015-07-29 04:32:00,67.0,66.0,29.92,North,5,3.0,4.0,96,0.00,,,0.00,weatherlink.com 1.10,2015-07-29 08:32:00,
2015-07-29 04:47:00,67.2,66.0,29.92,NNE,31,3.0,5.0,97,0.00,,,0.00,weatherlink.com 1.10,2015-07-29 08:47:00,
2015-07-29 05:02:00,67.7,67.0,29.93,NE,55,1.0,5.0,97,0.00,,,0.00,weatherlink.com 1.10,2015-07-29 09:02:00,
2015-07-29 05:17:00,67.3,66.0,29.93,South,172,0.0,3.0,95,0.00,,,0.00,weatherlink.com 1.10,2015-07-29 09:17:00,
2015-07-29 05:32:00,67.0,66.0,29.93,SSE,159,1.0,3.0,96,0.00,,,0.00,weatherlink.com 1.10,2015-07-29 09:32:00,
2015-07-29 05:47:00,67.7,67.0,29.93,SE,142,4.0,4.0,96,0.00,,,0.00,weatherlink.com 1.10,2015-07-29 09:47:00,
2015-07-29 06:02:00,67.9,67.0,29.94,SSE,164,2.0,8.0,96,0.00,,,0.00,weatherlink.com 1.10,2015-07-29 10:02:00,
2015-07-29 06:17:00,68.0,67.0,29.93,South,182,5.0,6.0,96,0.00,,,0.00,weatherlink.com 1.10,2015-07-29 10:17:00,
2015-07-29 06:32:00,68.4,67.0,29.93,South,171,2.0,8.0,96,0.00,,,0.00,weatherlink.com 1.10,2015-07-29 10:32:00,
2015-07-29 06:47:00,68.3,67.0,29.93,SSW,192,2.0,5.0,95,0.00,,,0.00,weatherlink.com 1.10,2015-07-29 10:47:00,
2015-07-29 07:03:00,68.4,67.0,29.93,South,177,2.0,5.0,96,0.00,,,0.00,weatherlink.com 1.10,2015-07-29 11:03:00,
2015-07-29 07:18:00,69.2,68.0,29.93,South,186,3.0,7.0,97,0.00,,,0.00,weatherlink.com 1.10,2015-07-29 11:18:00,
2015-07-29 07:33:00,69.9,69.0,29.94,South,184,2.0,6.0,96,0.00,,,0.00,weatherlink.com 1.10,2015-07-29 11:33:00,
2015-07-29 07:48:00,70.6,70.0,29.95,SSW,193,4.0,5.0,96,0.00,,,0.00,weatherlink.com 1.10,2015-07-29 11:48:00,
2015-07-29 08:03:00,71.4,70.0,29.95,South,187,1.0,7.0,95,0.00,,,0.00,weatherlink.com 1.10,2015-07-29 12:03:00,
2015-07-29 08:18:00,71.5,70.0,29.95,South,174,1.0,5.0,95,0.00,,,0.00,weatherlink.com 1.10,2015-07-29 12:18:00,
2015-07-29 08:33:00,72.2,71.0,29.95,ESE,114,3.0,3.0,95,0.00,,,0.00,weatherlink.com 1.10,2015-07-29 12:33:00,
2015-07-29 08:48:00,73.4,72.0,29.95,ESE,114,1.0,3.0,94,0.00,,,0.00,weatherlink.com 1.10,2015-07-29 12:48:00,
2015-07-29 09:03:00,75.0,72.0,29.95,ESE,114,1.0,2.0,90,0.00,,,0.00,weatherlink.com 1.10,2015-07-29 13:03:00,
2015-07-29 09:18:00,76.8,72.0,29.95,SW,230,2.0,3.0,86,0.00,,,0.00,weatherlink.com 1.10,2015-07-29 13:18:00,
2015-07-29 09:48:00,79.0,73.0,29.95,ENE,74,1.0,3.0,81,0.00,,,0.00,weatherlink.com 1.10,2015-07-29 13:48:00,
2015-07-29 10:03:00,79.3,73.0,29.95,ENE,58,2.0,4.0,81,0.00,,,0.00,weatherlink.com 1.10,2015-07-29 14:03:00,
2015-07-29 10:18:00,80.1,74.0,29.95,SSE,150,2.0,3.0,81,0.00,,,0.00,weatherlink.com 1.10,2015-07-29 14:18:00,
2015-07-29 10:48:00,81.2,74.0,29.95,SSW,199,3.0,5.0,78,0.00,,,0.00,weatherlink.com 1.10,2015-07-29 14:48:00,
2015-07-29 11:03:00,81.9,74.0,29.95,SSW,193,4.0,6.0,78,0.00,,,0.00,weatherlink.com 1.10,2015-07-29 15:03:00,
2015-07-29 11:18:00,82.8,75.0,29.95,South,176,0.0,6.0,78,0.00,,,0.00,weatherlink.com 1.10,2015-07-29 15:18:00,
2015-07-29 11:33:00,82.6,75.0,29.95,South,190,6.0,9.0,78,0.00,,,0.00,weatherlink.com 1.10,2015-07-29 15:33:00,
2015-07-29 11:48:00,83.0,75.0,29.95,SSE,167,5.0,5.0,77,0.00,,,0.00,weatherlink.com 1.10,2015-07-29 15:48:00,
2015-07-29 12:04:00,82.4,75.0,29.95,SSW,198,6.0,8.0,78,0.00,,,0.00,weatherlink.com 1.10,2015-07-29 16:04:00,
2015-07-29 12:18:00,83.3,77.0,29.95,SW,236,1.0,6.0,80,0.00,,,0.00,weatherlink.com 1.10,2015-07-29 16:18:00,
2015-07-29 12:33:00,82.5,75.0,29.95,SE,133,2.0,5.0,79,0.00,,,0.00,weatherlink.com 1.10,2015-07-29 16:33:00,
2015-07-29 12:48:00,83.0,76.0,29.95,South,177,3.0,8.0,78,0.00,,,0.00,weatherlink.com 1.10,2015-07-29 16:48:00,
2015-07-29 13:03:00,83.4,76.0,29.94,SSW,194,3.0,7.0,79,0.00,,,0.00,weatherlink.com 1.10,2015-07-29 17:03:00,
2015-07-29 13:18:00,83.1,76.0,29.94,South,180,7.0,10.0,78,0.00,,,0.00,weatherlink.com 1.10,2015-07-29 17:18:00,
2015-07-29 13:33:00,82.8,76.0,29.94,West,264,6.0,10.0,79,0.00,,,0.00,weatherlink.com 1.10,2015-07-29 17:33:00,
2015-07-29 13:48:00,83.1,76.0,29.93,SSW,196,7.0,12.0,80,0.00,,,0.00,weatherlink.com 1.10,2015-07-29 17:48:00,
2015-07-29 14:03:00,82.6,76.0,29.93,South,183,9.0,12.0,80,0.00,,,0.00,weatherlink.com 1.10,2015-07-29 18:03:00,
2015-07-29 14:18:00,82.6,76.0,29.93,South,173,3.0,14.0,79,0.00,,,0.00,weatherlink.com 1.10,2015-07-29 18:18:00,
2015-07-29 14:33:00,83.4,76.0,29.92,SSW,212,2.0,11.0,78,0.00,,,0.00,weatherlink.com 1.10,2015-07-29 18:33:00,
2015-07-29 14:48:00,83.4,75.0,29.92,South,191,8.0,11.0,76,0.00,,,0.00,weatherlink.com 1.10,2015-07-29 18:48:00,
2015-07-29 15:03:00,84.0,74.0,29.91,SE,131,2.0,9.0,72,0.00,,,0.00,weatherlink.com 1.10,2015-07-29 19:03:00,